sensor_id;sensor_type;location;lat;lon;timestamp;temperature;humidity
3678;DHT22;1855;50.934;6.958;2024-03-25T05:29:43;4.00;99.90
3678;DHT22;1855;50.934;6.958;2024-03-25T05:32:09;3.90;99.90
3678;DHT22;1855;50.934;6.958;2024-03-25T05:34:35;4.00;99.90
3678;DHT22;1855;50.934;6.958;2024-03-25T05:37:01;4.00;99.90
3678;DHT22;1855;50.934;6.958;2024-03-25T05:39:27;3.90;99.90
3678;DHT22;1855;50.934;6.958;2024-03-25T05:41:52;3.90;99.90
3678;DHT22;1855;50.934;6.958;2024-03-25T05:44:18;3.90;99.90
3678;DHT22;1855;50.934;6.958;2024-03-25T05:46:45;3.90;99.90
3678;DHT22;1855;50.934;6.958;2024-03-25T05:49:11;3.90;99.90
3678;DHT22;1855;50.934;6.958;2024-03-25T05:51:37;3.90;99.90
3678;DHT22;1855;50.934;6.958;2024-03-25T05:54:03;3.90;99.90
3678;DHT22;1855;50.934;6.958;2024-03-25T05:56:29;3.90;99.90
3678;DHT22;1855;50.934;6.958;2024-03-25T05:58:55;3.90;99.90
3678;DHT22;1855;50.934;6.958;2024-03-25T06:01:21;3.90;99.90
3678;DHT22;1855;50.934;6.958;2024-03-25T06:03:48;3.90;99.90
3678;DHT22;1855;50.934;6.958;2024-03-25T06:06:14;3.90;99.90
3678;DHT22;1855;50.934;6.958;2024-03-25T06:08:40;4.00;99.90
3678;DHT22;1855;50.934;6.958;2024-03-25T06:11:06;4.00;99.90
3678;DHT22;1855;50.934;6.958;2024-03-25T06:13:32;4.00;99.90
3678;DHT22;1855;50.934;6.958;2024-03-25T06:15:58;4.00;99.90
3678;DHT22;1855;50.934;6.958;2024-03-25T06:18:24;4.10;99.90
3678;DHT22;1855;50.934;6.958;2024-03-25T06:20:51;4.10;99.90
3678;DHT22;1855;50.934;6.958;2024-03-25T06:23:23;4.10;99.90
3678;DHT22;1855;50.934;6.958;2024-03-25T06:25:50;4.20;99.90
3678;DHT22;1855;50.934;6.958;2024-03-25T06:28:16;4.20;99.90
3678;DHT22;1855;50.934;6.958;2024-03-25T06:30:42;4.30;99.90
3678;DHT22;1855;50.934;6.958;2024-03-25T06:33:26;4.40;99.90
3678;DHT22;1855;50.934;6.958;2024-03-25T06:36:26;4.40;99.90
3678;DHT22;1855;50.934;6.958;2024-03-25T06:38:52;4.50;99.90
3678;DHT22;1855;50.934;6.958;2024-03-25T06:41:18;4.60;99.90
3678;DHT22;1855;50.934;6.958;2024-03-25T06:43:44;4.60;99.90
3678;DHT22;1855;50.934;6.958;2024-03-25T06:46:10;4.70;99.90
3678;DHT22;1855;50.934;6.958;2024-03-25T06:48:36;4.80;99.90
3678;DHT22;1855;50.934;6.958;2024-03-25T06:51:02;4.80;99.90
3678;DHT22;1855;50.934;6.958;2024-03-25T06:53:30;4.90;99.90
3678;DHT22;1855;50.934;6.958;2024-03-25T06:55:57;5.00;99.90
3678;DHT22;1855;50.934;6.958;2024-03-25T06:58:24;5.00;99.90
3678;DHT22;1855;50.934;6.958;2024-03-25T07:00:51;5.10;99.90
3678;DHT22;1855;50.934;6.958;2024-03-25T07:03:17;5.20;99.90
3678;DHT22;1855;50.934;6.958;2024-03-25T07:05:44;5.20;99.90
3678;DHT22;1855;50.934;6.958;2024-03-25T07:08:10;5.30;99.90
3678;DHT22;1855;50.934;6.958;2024-03-25T07:10:37;5.30;99.90
3678;DHT22;1855;50.934;6.958;2024-03-25T07:13:04;5.40;99.90
3678;DHT22;1855;50.934;6.958;2024-03-25T07:15:30;5.40;99.90
3678;DHT22;1855;50.934;6.958;2024-03-25T07:17:56;5.50;99.90
3678;DHT22;1855;50.934;6.958;2024-03-25T07:20:22;5.60;99.90
3678;DHT22;1855;50.934;6.958;2024-03-25T07:22:48;5.60;99.90
3678;DHT22;1855;50.934;6.958;2024-03-25T07:25:13;5.70;99.90
3678;DHT22;1855;50.934;6.958;2024-03-25T07:27:41;5.90;99.90
3678;DHT22;1855;50.934;6.958;2024-03-25T07:30:07;6.00;99.90
3678;DHT22;1855;50.934;6.958;2024-03-25T07:32:33;6.10;99.90
3678;DHT22;1855;50.934;6.958;2024-03-25T07:34:59;6.20;99.90
3678;DHT22;1855;50.934;6.958;2024-03-25T07:37:25;6.40;99.90
3678;DHT22;1855;50.934;6.958;2024-03-25T07:39:51;6.40;99.90
3678;DHT22;1855;50.934;6.958;2024-03-25T07:42:17;6.50;99.90
3678;DHT22;1855;50.934;6.958;2024-03-25T07:44:44;6.70;99.90
3678;DHT22;1855;50.934;6.958;2024-03-25T07:47:09;6.80;99.90
3678;DHT22;1855;50.934;6.958;2024-03-25T07:49:35;7.00;99.90
3678;DHT22;1855;50.934;6.958;2024-03-25T07:52:02;7.10;99.90
3678;DHT22;1855;50.934;6.958;2024-03-25T07:54:28;7.20;99.90
3678;DHT22;1855;50.934;6.958;2024-03-25T07:56:54;7.20;99.90
3678;DHT22;1855;50.934;6.958;2024-03-25T07:59:20;7.30;99.90
3678;DHT22;1855;50.934;6.958;2024-03-25T08:01:47;7.40;99.90
3678;DHT22;1855;50.934;6.958;2024-03-25T08:04:13;7.50;99.90
3678;DHT22;1855;50.934;6.958;2024-03-25T08:06:38;7.70;99.90
3678;DHT22;1855;50.934;6.958;2024-03-25T08:09:04;8.00;99.90
3678;DHT22;1855;50.934;6.958;2024-03-25T08:11:30;8.20;99.90
3678;DHT22;1855;50.934;6.958;2024-03-25T08:13:56;8.50;99.90
3678;DHT22;1855;50.934;6.958;2024-03-25T08:16:22;8.70;99.90
3678;DHT22;1855;50.934;6.958;2024-03-25T08:18:49;8.80;99.90
3678;DHT22;1855;50.934;6.958;2024-03-25T08:21:15;8.90;99.90
3678;DHT22;1855;50.934;6.958;2024-03-25T08:23:44;9.10;99.90
3678;DHT22;1855;50.934;6.958;2024-03-25T08:26:09;9.20;99.90
3678;DHT22;1855;50.934;6.958;2024-03-25T08:28:35;9.50;99.90
3678;DHT22;1855;50.934;6.958;2024-03-25T08:31:01;9.70;99.90
3678;DHT22;1855;50.934;6.958;2024-03-25T08:33:27;9.60;99.90
3678;DHT22;1855;50.934;6.958;2024-03-25T08:35:54;9.60;99.90
3678;DHT22;1855;50.934;6.958;2024-03-25T08:38:20;9.50;99.90
3678;DHT22;1855;50.934;6.958;2024-03-25T08:40:46;9.40;99.90
3678;DHT22;1855;50.934;6.958;2024-03-25T08:43:12;9.50;99.90
3678;DHT22;1855;50.934;6.958;2024-03-25T08:45:37;9.50;99.90
3678;DHT22;1855;50.934;6.958;2024-03-25T08:48:04;9.50;99.90
3678;DHT22;1855;50.934;6.958;2024-03-25T08:50:30;9.70;99.90
3678;DHT22;1855;50.934;6.958;2024-03-25T08:52:57;9.90;99.90
3678;DHT22;1855;50.934;6.958;2024-03-25T08:55:23;10.10;98.00
3678;DHT22;1855;50.934;6.958;2024-03-25T08:57:49;10.20;95.20
3678;DHT22;1855;50.934;6.958;2024-03-25T09:00:15;10.20;96.00
3678;DHT22;1855;50.934;6.958;2024-03-25T09:02:42;10.40;93.80
3678;DHT22;1855;50.934;6.958;2024-03-25T09:05:08;10.40;93.10
3678;DHT22;1855;50.934;6.958;2024-03-25T09:07:34;10.30;82.00
3678;DHT22;1855;50.934;6.958;2024-03-25T09:10:01;10.20;79.90
3678;DHT22;1855;50.934;6.958;2024-03-25T09:12:46;10.10;84.10
3678;DHT22;1855;50.934;6.958;2024-03-25T09:15:12;10.00;91.00
3678;DHT22;1855;50.934;6.958;2024-03-25T09:17:37;10.10;95.80
3678;DHT22;1855;50.934;6.958;2024-03-25T09:20:04;10.30;96.20
3678;DHT22;1855;50.934;6.958;2024-03-25T09:22:30;10.60;92.90
3678;DHT22;1855;50.934;6.958;2024-03-25T09:24:56;10.90;91.00
3678;DHT22;1855;50.934;6.958;2024-03-25T09:27:23;11.10;85.40
3678;DHT22;1855;50.934;6.958;2024-03-25T09:29:49;11.10;78.80
3678;DHT22;1855;50.934;6.958;2024-03-25T09:32:15;11.20;78.80
3678;DHT22;1855;50.934;6.958;2024-03-25T09:34:41;11.30;79.70
3678;DHT22;1855;50.934;6.958;2024-03-25T09:37:07;11.50;77.80
3678;DHT22;1855;50.934;6.958;2024-03-25T09:39:32;11.50;75.00
3678;DHT22;1855;50.934;6.958;2024-03-25T09:42:01;11.50;74.40
3678;DHT22;1855;50.934;6.958;2024-03-25T09:44:30;11.40;72.20
3678;DHT22;1855;50.934;6.958;2024-03-25T09:46:56;11.50;73.90
3678;DHT22;1855;50.934;6.958;2024-03-25T09:49:23;11.70;72.20
3678;DHT22;1855;50.934;6.958;2024-03-25T09:51:49;11.90;70.60
3678;DHT22;1855;50.934;6.958;2024-03-25T09:54:15;12.20;68.20
3678;DHT22;1855;50.934;6.958;2024-03-25T09:56:42;12.40;68.90
3678;DHT22;1855;50.934;6.958;2024-03-25T09:59:07;12.60;69.20
3678;DHT22;1855;50.934;6.958;2024-03-25T10:01:35;12.80;68.40
3678;DHT22;1855;50.934;6.958;2024-03-25T10:04:01;12.80;66.80
3678;DHT22;1855;50.934;6.958;2024-03-25T10:06:27;12.50;63.60
3678;DHT22;1855;50.934;6.958;2024-03-25T10:08:53;12.40;64.70
3678;DHT22;1855;50.934;6.958;2024-03-25T10:11:19;12.50;66.10
3678;DHT22;1855;50.934;6.958;2024-03-25T10:13:45;12.60;64.50
3678;DHT22;1855;50.934;6.958;2024-03-25T10:16:11;12.60;62.70
3678;DHT22;1855;50.934;6.958;2024-03-25T10:18:38;12.40;62.30
3678;DHT22;1855;50.934;6.958;2024-03-25T10:21:04;12.40;64.90
3678;DHT22;1855;50.934;6.958;2024-03-25T10:23:30;12.60;65.50
3678;DHT22;1855;50.934;6.958;2024-03-25T10:25:56;12.90;64.80
3678;DHT22;1855;50.934;6.958;2024-03-25T10:28:22;13.20;62.20
3678;DHT22;1855;50.934;6.958;2024-03-25T10:30:48;13.70;58.80
3678;DHT22;1855;50.934;6.958;2024-03-25T10:33:14;13.90;56.90
3678;DHT22;1855;50.934;6.958;2024-03-25T10:35:41;13.90;57.70
3678;DHT22;1855;50.934;6.958;2024-03-25T10:38:10;14.20;57.80
3678;DHT22;1855;50.934;6.958;2024-03-25T10:40:37;14.40;55.90
3678;DHT22;1855;50.934;6.958;2024-03-25T10:43:05;14.50;54.50
3678;DHT22;1855;50.934;6.958;2024-03-25T10:45:32;14.70;53.40
3678;DHT22;1855;50.934;6.958;2024-03-25T10:48:02;15.00;52.90
3678;DHT22;1855;50.934;6.958;2024-03-25T10:50:29;15.20;51.30
3678;DHT22;1855;50.934;6.958;2024-03-25T10:52:57;15.40;50.00
3678;DHT22;1855;50.934;6.958;2024-03-25T10:55:24;15.30;49.40
3678;DHT22;1855;50.934;6.958;2024-03-25T10:57:51;15.40;49.40
3678;DHT22;1855;50.934;6.958;2024-03-25T11:00:18;15.30;49.10
3678;DHT22;1855;50.934;6.958;2024-03-25T11:02:45;15.00;48.50
3678;DHT22;1855;50.934;6.958;2024-03-25T11:05:12;14.80;48.90
3678;DHT22;1855;50.934;6.958;2024-03-25T11:07:37;14.70;49.20
3678;DHT22;1855;50.934;6.958;2024-03-25T11:10:06;14.70;49.30
3678;DHT22;1855;50.934;6.958;2024-03-25T11:12:34;14.60;48.70
3678;DHT22;1855;50.934;6.958;2024-03-25T11:15:01;14.40;49.30
3678;DHT22;1855;50.934;6.958;2024-03-25T11:17:29;14.30;49.90
3678;DHT22;1855;50.934;6.958;2024-03-25T11:20:05;14.40;49.50
3678;DHT22;1855;50.934;6.958;2024-03-25T11:22:32;14.50;48.90
3678;DHT22;1855;50.934;6.958;2024-03-25T11:25:06;14.60;48.50
3678;DHT22;1855;50.934;6.958;2024-03-25T11:27:35;14.60;48.90
3678;DHT22;1855;50.934;6.958;2024-03-25T11:30:02;14.70;49.40
3678;DHT22;1855;50.934;6.958;2024-03-25T11:32:28;15.00;49.20
3678;DHT22;1855;50.934;6.958;2024-03-25T11:34:54;15.40;49.00
3678;DHT22;1855;50.934;6.958;2024-03-25T11:37:20;15.60;47.50
3678;DHT22;1855;50.934;6.958;2024-03-25T11:39:46;15.50;46.30
3678;DHT22;1855;50.934;6.958;2024-03-25T11:42:14;15.10;46.40
3678;DHT22;1855;50.934;6.958;2024-03-25T11:44:40;14.80;47.20
3678;DHT22;1855;50.934;6.958;2024-03-25T11:47:07;14.80;48.20
3678;DHT22;1855;50.934;6.958;2024-03-25T11:49:34;15.10;46.30
3678;DHT22;1855;50.934;6.958;2024-03-25T11:52:02;15.30;46.10
3678;DHT22;1855;50.934;6.958;2024-03-25T11:54:28;15.50;45.90
3678;DHT22;1855;50.934;6.958;2024-03-25T11:56:54;15.60;45.90
3678;DHT22;1855;50.934;6.958;2024-03-25T11:59:21;15.90;46.50
3678;DHT22;1855;50.934;6.958;2024-03-25T12:01:47;16.10;46.80
3678;DHT22;1855;50.934;6.958;2024-03-25T12:04:18;16.10;42.70
3678;DHT22;1855;50.934;6.958;2024-03-25T12:06:44;16.00;42.20
3678;DHT22;1855;50.934;6.958;2024-03-25T12:09:11;16.10;42.80
3678;DHT22;1855;50.934;6.958;2024-03-25T12:11:55;16.10;44.70
3678;DHT22;1855;50.934;6.958;2024-03-25T12:14:22;15.70;44.40
3678;DHT22;1855;50.934;6.958;2024-03-25T12:16:48;15.30;45.00
3678;DHT22;1855;50.934;6.958;2024-03-25T12:19:15;15.40;45.70
3678;DHT22;1855;50.934;6.958;2024-03-25T12:21:41;15.70;44.60
3678;DHT22;1855;50.934;6.958;2024-03-25T12:24:07;16.10;44.10
3678;DHT22;1855;50.934;6.958;2024-03-25T12:26:34;16.50;45.10
3678;DHT22;1855;50.934;6.958;2024-03-25T12:29:00;16.70;43.00
3678;DHT22;1855;50.934;6.958;2024-03-25T12:31:27;17.00;41.70
3678;DHT22;1855;50.934;6.958;2024-03-25T12:33:53;17.10;40.30
3678;DHT22;1855;50.934;6.958;2024-03-25T12:36:20;17.10;39.60
3678;DHT22;1855;50.934;6.958;2024-03-25T12:38:54;17.00;40.00
3678;DHT22;1855;50.934;6.958;2024-03-25T12:41:22;16.90;39.90
3678;DHT22;1855;50.934;6.958;2024-03-25T12:43:49;16.90;40.10
3678;DHT22;1855;50.934;6.958;2024-03-25T12:46:16;16.90;40.90
3678;DHT22;1855;50.934;6.958;2024-03-25T12:48:44;16.80;40.90
3678;DHT22;1855;50.934;6.958;2024-03-25T12:51:13;16.90;40.60
3678;DHT22;1855;50.934;6.958;2024-03-25T12:53:39;16.80;41.30
3678;DHT22;1855;50.934;6.958;2024-03-25T12:56:06;16.40;40.80
3678;DHT22;1855;50.934;6.958;2024-03-25T12:58:33;16.40;42.10
3678;DHT22;1855;50.934;6.958;2024-03-25T13:00:59;16.60;41.00
3678;DHT22;1855;50.934;6.958;2024-03-25T13:03:25;16.60;39.90
3678;DHT22;1855;50.934;6.958;2024-03-25T13:05:52;16.60;39.50
3678;DHT22;1855;50.934;6.958;2024-03-25T13:08:18;16.90;40.40
3678;DHT22;1855;50.934;6.958;2024-03-25T13:10:44;17.00;38.90
3678;DHT22;1855;50.934;6.958;2024-03-25T13:13:10;17.00;39.80
3678;DHT22;1855;50.934;6.958;2024-03-25T13:15:36;17.00;40.20
3678;DHT22;1855;50.934;6.958;2024-03-25T13:18:02;17.00;40.30
3678;DHT22;1855;50.934;6.958;2024-03-25T13:20:28;17.30;39.50
3678;DHT22;1855;50.934;6.958;2024-03-25T13:22:55;17.60;38.00
3678;DHT22;1855;50.934;6.958;2024-03-25T13:25:21;17.60;38.50
3678;DHT22;1855;50.934;6.958;2024-03-25T13:27:47;17.40;38.30
3678;DHT22;1855;50.934;6.958;2024-03-25T13:30:13;17.20;38.20
3678;DHT22;1855;50.934;6.958;2024-03-25T13:32:39;17.20;38.50
3678;DHT22;1855;50.934;6.958;2024-03-25T13:35:05;17.20;38.40
3678;DHT22;1855;50.934;6.958;2024-03-25T13:37:32;17.40;39.10
3678;DHT22;1855;50.934;6.958;2024-03-25T13:39:59;17.50;39.50
3678;DHT22;1855;50.934;6.958;2024-03-25T13:42:25;17.50;38.60
3678;DHT22;1855;50.934;6.958;2024-03-25T13:44:50;17.40;36.60
3678;DHT22;1855;50.934;6.958;2024-03-25T13:47:16;17.10;36.40
3678;DHT22;1855;50.934;6.958;2024-03-25T13:49:42;17.00;38.00
3678;DHT22;1855;50.934;6.958;2024-03-25T13:52:08;17.30;38.00
3678;DHT22;1855;50.934;6.958;2024-03-25T13:54:34;17.40;38.20
3678;DHT22;1855;50.934;6.958;2024-03-25T13:57:01;17.60;38.00
3678;DHT22;1855;50.934;6.958;2024-03-25T13:59:27;17.80;38.00
3678;DHT22;1855;50.934;6.958;2024-03-25T14:01:53;18.10;38.00
3678;DHT22;1855;50.934;6.958;2024-03-25T14:04:19;18.00;36.60
3678;DHT22;1855;50.934;6.958;2024-03-25T14:06:45;17.90;36.40
3678;DHT22;1855;50.934;6.958;2024-03-25T14:09:10;17.80;35.80
3678;DHT22;1855;50.934;6.958;2024-03-25T14:11:36;17.20;35.70
3678;DHT22;1855;50.934;6.958;2024-03-25T14:14:03;17.00;36.50
3678;DHT22;1855;50.934;6.958;2024-03-25T14:16:29;17.00;36.70
3678;DHT22;1855;50.934;6.958;2024-03-25T14:18:55;16.80;36.90
3678;DHT22;1855;50.934;6.958;2024-03-25T14:21:21;16.40;37.60
3678;DHT22;1855;50.934;6.958;2024-03-25T14:23:47;16.40;38.40
3678;DHT22;1855;50.934;6.958;2024-03-25T14:26:13;16.90;38.40
3678;DHT22;1855;50.934;6.958;2024-03-25T14:28:40;17.10;36.20
3678;DHT22;1855;50.934;6.958;2024-03-25T14:31:07;17.10;35.80
3678;DHT22;1855;50.934;6.958;2024-03-25T14:33:33;17.20;35.60
3678;DHT22;1855;50.934;6.958;2024-03-25T14:35:59;17.20;35.40
3678;DHT22;1855;50.934;6.958;2024-03-25T14:38:25;17.60;35.20
3678;DHT22;1855;50.934;6.958;2024-03-25T14:40:51;17.60;34.90
3678;DHT22;1855;50.934;6.958;2024-03-25T14:43:17;17.50;35.50
3678;DHT22;1855;50.934;6.958;2024-03-25T14:45:43;17.50;35.40
3678;DHT22;1855;50.934;6.958;2024-03-25T14:48:10;17.20;35.30
3678;DHT22;1855;50.934;6.958;2024-03-25T14:50:36;16.80;35.50
3678;DHT22;1855;50.934;6.958;2024-03-25T14:53:02;16.90;35.70
3678;DHT22;1855;50.934;6.958;2024-03-25T14:55:29;17.00;35.00
3678;DHT22;1855;50.934;6.958;2024-03-25T14:57:55;17.30;34.10
3678;DHT22;1855;50.934;6.958;2024-03-25T15:00:20;17.80;33.00
3678;DHT22;1855;50.934;6.958;2024-03-25T15:02:47;17.90;33.50
3678;DHT22;1855;50.934;6.958;2024-03-25T15:05:14;18.30;33.50
3678;DHT22;1855;50.934;6.958;2024-03-25T15:07:40;18.60;32.30
3678;DHT22;1855;50.934;6.958;2024-03-25T15:10:06;18.90;31.70
3678;DHT22;1855;50.934;6.958;2024-03-25T15:12:32;19.20;31.80
3678;DHT22;1855;50.934;6.958;2024-03-25T15:14:58;19.70;30.30
3678;DHT22;1855;50.934;6.958;2024-03-25T15:17:24;19.90;30.60
3678;DHT22;1855;50.934;6.958;2024-03-25T15:19:50;19.90;30.30
3678;DHT22;1855;50.934;6.958;2024-03-25T15:22:17;20.40;30.70
3678;DHT22;1855;50.934;6.958;2024-03-25T15:24:43;21.30;30.00
3678;DHT22;1855;50.934;6.958;2024-03-25T15:27:09;21.70;28.70
3678;DHT22;1855;50.934;6.958;2024-03-25T15:29:34;22.10;28.60
3678;DHT22;1855;50.934;6.958;2024-03-25T15:32:00;22.00;28.00
3678;DHT22;1855;50.934;6.958;2024-03-25T15:34:26;22.60;28.00
3678;DHT22;1855;50.934;6.958;2024-03-25T15:36:52;22.50;27.50
3678;DHT22;1855;50.934;6.958;2024-03-25T15:39:19;21.90;28.30
3678;DHT22;1855;50.934;6.958;2024-03-25T15:41:45;21.70;28.50
3678;DHT22;1855;50.934;6.958;2024-03-25T15:44:11;22.20;28.40
3678;DHT22;1855;50.934;6.958;2024-03-25T15:46:36;22.60;27.50
3678;DHT22;1855;50.934;6.958;2024-03-25T15:49:02;22.30;27.40
3678;DHT22;1855;50.934;6.958;2024-03-25T15:51:28;21.90;28.00
3678;DHT22;1855;50.934;6.958;2024-03-25T15:53:54;22.00;28.10
3678;DHT22;1855;50.934;6.958;2024-03-25T15:56:21;21.80;28.30
3678;DHT22;1855;50.934;6.958;2024-03-25T15:58:47;22.00;28.30
3678;DHT22;1855;50.934;6.958;2024-03-25T16:01:13;22.10;28.30
3678;DHT22;1855;50.934;6.958;2024-03-25T16:03:38;21.70;28.60
3678;DHT22;1855;50.934;6.958;2024-03-25T16:06:04;21.60;28.50
3678;DHT22;1855;50.934;6.958;2024-03-25T16:08:30;21.10;28.70
3678;DHT22;1855;50.934;6.958;2024-03-25T16:10:56;20.10;29.40
3678;DHT22;1855;50.934;6.958;2024-03-25T16:13:23;19.30;31.30
3678;DHT22;1855;50.934;6.958;2024-03-25T16:16:01;18.40;31.90
3678;DHT22;1855;50.934;6.958;2024-03-25T16:18:27;17.70;32.80
3678;DHT22;1855;50.934;6.958;2024-03-25T16:20:53;17.40;33.40
3678;DHT22;1855;50.934;6.958;2024-03-25T16:23:19;17.20;34.00
3678;DHT22;1855;50.934;6.958;2024-03-25T16:25:45;16.90;34.50
3678;DHT22;1855;50.934;6.958;2024-03-25T16:28:10;16.70;35.40
3678;DHT22;1855;50.934;6.958;2024-03-25T16:30:38;16.40;35.50
3678;DHT22;1855;50.934;6.958;2024-03-25T16:33:04;15.90;36.50
3678;DHT22;1855;50.934;6.958;2024-03-25T16:35:30;15.30;37.10
3678;DHT22;1855;50.934;6.958;2024-03-25T16:37:56;14.70;38.40
3678;DHT22;1855;50.934;6.958;2024-03-25T16:40:22;14.20;39.00
3678;DHT22;1855;50.934;6.958;2024-03-25T16:42:48;13.80;39.80
3678;DHT22;1855;50.934;6.958;2024-03-25T16:45:14;13.60;40.10
3678;DHT22;1855;50.934;6.958;2024-03-25T16:47:41;13.40;40.50
3678;DHT22;1855;50.934;6.958;2024-03-25T16:50:08;13.20;41.30
3678;DHT22;1855;50.934;6.958;2024-03-25T16:52:34;13.10;42.20
3678;DHT22;1855;50.934;6.958;2024-03-25T16:55:00;13.10;42.00
3678;DHT22;1855;50.934;6.958;2024-03-25T16:57:26;13.00;42.20
3678;DHT22;1855;50.934;6.958;2024-03-25T16:59:52;13.00;42.30
3678;DHT22;1855;50.934;6.958;2024-03-25T17:02:17;12.90;41.90
3678;DHT22;1855;50.934;6.958;2024-03-25T17:04:45;12.80;41.10
3678;DHT22;1855;50.934;6.958;2024-03-25T17:07:10;12.70;41.80
3678;DHT22;1855;50.934;6.958;2024-03-25T17:09:36;12.70;41.40
3678;DHT22;1855;50.934;6.958;2024-03-25T17:12:02;12.60;42.20
3678;DHT22;1855;50.934;6.958;2024-03-25T17:14:28;12.50;42.40
3678;DHT22;1855;50.934;6.958;2024-03-25T17:16:54;12.50;41.70
3678;DHT22;1855;50.934;6.958;2024-03-25T17:19:20;12.40;42.70
3678;DHT22;1855;50.934;6.958;2024-03-25T17:21:47;12.30;43.50
3678;DHT22;1855;50.934;6.958;2024-03-25T17:24:13;12.30;43.20
3678;DHT22;1855;50.934;6.958;2024-03-25T17:26:39;12.20;43.00
3678;DHT22;1855;50.934;6.958;2024-03-25T17:29:05;12.10;44.40
3678;DHT22;1855;50.934;6.958;2024-03-25T17:31:31;12.00;44.50
3678;DHT22;1855;50.934;6.958;2024-03-25T17:33:57;11.90;45.50
3678;DHT22;1855;50.934;6.958;2024-03-25T17:36:22;11.80;46.00
3678;DHT22;1855;50.934;6.958;2024-03-25T17:38:50;11.70;45.50
3678;DHT22;1855;50.934;6.958;2024-03-25T17:41:15;11.60;46.10
3678;DHT22;1855;50.934;6.958;2024-03-25T17:43:41;11.60;46.70
3678;DHT22;1855;50.934;6.958;2024-03-25T17:46:07;11.50;47.00
3678;DHT22;1855;50.934;6.958;2024-03-25T17:48:33;11.40;47.60
3678;DHT22;1855;50.934;6.958;2024-03-25T17:50:59;11.40;47.50
3678;DHT22;1855;50.934;6.958;2024-03-25T17:53:26;11.30;48.10
3678;DHT22;1855;50.934;6.958;2024-03-25T17:55:53;11.30;47.20
3678;DHT22;1855;50.934;6.958;2024-03-25T17:58:19;11.20;47.70
3678;DHT22;1855;50.934;6.958;2024-03-25T18:00:45;11.20;47.60
3678;DHT22;1855;50.934;6.958;2024-03-25T18:03:11;11.10;47.90
3678;DHT22;1855;50.934;6.958;2024-03-25T18:05:36;11.10;48.00
3678;DHT22;1855;50.934;6.958;2024-03-25T18:08:03;11.00;48.30
3678;DHT22;1855;50.934;6.958;2024-03-25T18:10:29;11.00;47.60
3678;DHT22;1855;50.934;6.958;2024-03-25T18:12:56;10.90;47.90
3678;DHT22;1855;50.934;6.958;2024-03-25T18:15:22;10.90;48.30
3678;DHT22;1855;50.934;6.958;2024-03-25T18:17:47;10.80;48.40
3678;DHT22;1855;50.934;6.958;2024-03-25T18:20:13;10.70;48.00
3678;DHT22;1855;50.934;6.958;2024-03-25T18:22:39;10.70;48.10
3678;DHT22;1855;50.934;6.958;2024-03-25T18:25:06;10.60;48.30
3678;DHT22;1855;50.934;6.958;2024-03-25T18:27:32;10.60;48.60
3678;DHT22;1855;50.934;6.958;2024-03-25T18:29:59;10.60;49.30
3678;DHT22;1855;50.934;6.958;2024-03-25T18:32:25;10.50;49.60
3678;DHT22;1855;50.934;6.958;2024-03-25T18:34:50;10.40;49.60
3678;DHT22;1855;50.934;6.958;2024-03-25T18:37:17;10.40;49.70
3678;DHT22;1855;50.934;6.958;2024-03-25T18:39:43;10.40;49.90
3678;DHT22;1855;50.934;6.958;2024-03-25T18:42:09;10.30;50.00
3678;DHT22;1855;50.934;6.958;2024-03-25T18:44:35;10.30;50.10
3678;DHT22;1855;50.934;6.958;2024-03-25T18:47:02;10.20;50.00
3678;DHT22;1855;50.934;6.958;2024-03-25T18:49:28;10.20;50.00
3678;DHT22;1855;50.934;6.958;2024-03-25T18:51:53;10.20;50.60
3678;DHT22;1855;50.934;6.958;2024-03-25T18:54:19;10.10;50.20
3678;DHT22;1855;50.934;6.958;2024-03-25T18:56:45;10.10;50.00
3678;DHT22;1855;50.934;6.958;2024-03-25T18:59:11;10.00;50.20
3678;DHT22;1855;50.934;6.958;2024-03-25T19:01:37;10.00;50.00
3678;DHT22;1855;50.934;6.958;2024-03-25T19:04:04;10.00;50.30
3678;DHT22;1855;50.934;6.958;2024-03-25T19:06:30;9.90;50.10
3678;DHT22;1855;50.934;6.958;2024-03-25T19:08:56;9.90;51.00
3678;DHT22;1855;50.934;6.958;2024-03-25T19:11:22;9.90;50.80
3678;DHT22;1855;50.934;6.958;2024-03-25T19:13:47;9.90;50.70
3678;DHT22;1855;50.934;6.958;2024-03-25T19:16:13;9.80;50.90
3678;DHT22;1855;50.934;6.958;2024-03-25T19:18:39;9.80;50.70
3678;DHT22;1855;50.934;6.958;2024-03-25T19:21:06;9.80;51.10
3678;DHT22;1855;50.934;6.958;2024-03-25T19:23:32;9.70;51.00
3678;DHT22;1855;50.934;6.958;2024-03-25T19:25:58;9.70;51.20
3678;DHT22;1855;50.934;6.958;2024-03-25T19:28:24;9.70;51.00
3678;DHT22;1855;50.934;6.958;2024-03-25T19:30:50;9.70;51.50
3678;DHT22;1855;50.934;6.958;2024-03-25T19:33:16;9.70;52.20
3678;DHT22;1855;50.934;6.958;2024-03-25T19:35:42;9.60;51.60
3678;DHT22;1855;50.934;6.958;2024-03-25T19:38:09;9.60;51.60
3678;DHT22;1855;50.934;6.958;2024-03-25T19:40:34;9.50;51.90
3678;DHT22;1855;50.934;6.958;2024-03-25T19:43:00;9.50;52.30
3678;DHT22;1855;50.934;6.958;2024-03-25T19:45:26;9.50;52.00
3678;DHT22;1855;50.934;6.958;2024-03-25T19:47:52;9.40;51.60
3678;DHT22;1855;50.934;6.958;2024-03-25T19:50:18;9.40;52.10
3678;DHT22;1855;50.934;6.958;2024-03-25T19:52:43;9.40;52.50
3678;DHT22;1855;50.934;6.958;2024-03-25T19:55:11;9.30;52.80
3678;DHT22;1855;50.934;6.958;2024-03-25T19:57:36;9.30;52.70
3678;DHT22;1855;50.934;6.958;2024-03-25T20:00:03;9.20;53.00
3678;DHT22;1855;50.934;6.958;2024-03-25T20:02:29;9.20;53.80
3678;DHT22;1855;50.934;6.958;2024-03-25T20:04:55;9.10;53.80
3678;DHT22;1855;50.934;6.958;2024-03-25T20:07:21;9.10;54.40
3678;DHT22;1855;50.934;6.958;2024-03-25T20:09:47;9.00;54.90
3678;DHT22;1855;50.934;6.958;2024-03-25T20:12:14;9.00;54.70
3678;DHT22;1855;50.934;6.958;2024-03-25T20:14:39;9.00;55.40
3678;DHT22;1855;50.934;6.958;2024-03-25T20:17:05;9.00;55.20
3678;DHT22;1855;50.934;6.958;2024-03-25T20:19:31;8.90;56.20
3678;DHT22;1855;50.934;6.958;2024-03-25T20:21:57;8.90;56.30
3678;DHT22;1855;50.934;6.958;2024-03-25T20:24:23;8.80;56.10
3678;DHT22;1855;50.934;6.958;2024-03-25T20:26:49;8.80;56.80
3678;DHT22;1855;50.934;6.958;2024-03-25T20:29:16;8.70;56.90
3678;DHT22;1855;50.934;6.958;2024-03-25T20:31:42;8.70;56.90
3678;DHT22;1855;50.934;6.958;2024-03-25T20:34:07;8.70;57.80
3678;DHT22;1855;50.934;6.958;2024-03-25T20:36:33;8.70;58.00
3678;DHT22;1855;50.934;6.958;2024-03-25T20:38:59;8.60;59.00
3678;DHT22;1855;50.934;6.958;2024-03-25T20:41:25;8.50;58.80
3678;DHT22;1855;50.934;6.958;2024-03-25T20:43:51;8.50;58.90
3678;DHT22;1855;50.934;6.958;2024-03-25T20:46:18;8.50;58.80
3678;DHT22;1855;50.934;6.958;2024-03-25T20:48:44;8.50;58.90
3678;DHT22;1855;50.934;6.958;2024-03-25T20:51:09;8.40;59.10
3678;DHT22;1855;50.934;6.958;2024-03-25T20:53:35;8.40;59.20
3678;DHT22;1855;50.934;6.958;2024-03-25T20:56:01;8.30;59.70
3678;DHT22;1855;50.934;6.958;2024-03-25T20:58:27;8.30;59.90
3678;DHT22;1855;50.934;6.958;2024-03-25T21:00:53;8.30;60.20
3678;DHT22;1855;50.934;6.958;2024-03-25T21:03:20;8.30;60.20
3678;DHT22;1855;50.934;6.958;2024-03-25T21:05:53;8.20;61.40
3678;DHT22;1855;50.934;6.958;2024-03-25T21:08:19;8.20;61.00
3678;DHT22;1855;50.934;6.958;2024-03-25T21:10:45;8.10;61.20
3678;DHT22;1855;50.934;6.958;2024-03-25T21:13:10;8.10;61.50
3678;DHT22;1855;50.934;6.958;2024-03-25T21:15:36;8.10;61.80
3678;DHT22;1855;50.934;6.958;2024-03-25T21:18:02;8.10;62.10
3678;DHT22;1855;50.934;6.958;2024-03-25T21:20:29;8.00;62.40
3678;DHT22;1855;50.934;6.958;2024-03-25T21:22:55;8.00;62.60
3678;DHT22;1855;50.934;6.958;2024-03-25T21:25:21;8.00;62.30
3678;DHT22;1855;50.934;6.958;2024-03-25T21:27:47;7.90;62.90
3678;DHT22;1855;50.934;6.958;2024-03-25T21:30:13;7.90;63.20